createdAt,value
2023-03-16T00:02:24.488Z,26.60
2023-03-16T00:07:30.462Z,27.10
2023-03-16T00:12:35.854Z,25.10
2023-03-16T00:17:41.283Z,26.40
2023-03-16T00:22:46.802Z,26.00
2023-03-16T00:27:52.606Z,26.80
2023-03-16T00:32:58.192Z,26.10
2023-03-16T00:38:03.934Z,26.80
2023-03-16T00:43:09.390Z,26.00
2023-03-16T00:48:16.559Z,23.20
2023-03-16T00:53:22.189Z,24.40
2023-03-16T00:58:36.131Z,24.30
2023-03-16T01:03:42.085Z,25.70
2023-03-16T01:08:47.946Z,25.70
2023-03-16T01:13:54.342Z,25.50
2023-03-16T01:19:00.026Z,25.60
2023-03-16T01:24:06.934Z,25.60
2023-03-16T01:29:12.706Z,24.80
2023-03-16T01:34:18.755Z,23.70
2023-03-16T01:39:24.378Z,25.30
2023-03-16T01:44:35.184Z,22.90
2023-03-16T01:49:48.066Z,22.40
2023-03-16T01:54:57.328Z,22.40
2023-03-16T02:00:10.842Z,23.80
2023-03-16T02:05:31.125Z,23.90
2023-03-16T02:10:37.432Z,23.80
2023-03-16T02:15:43.265Z,21.30
2023-03-16T02:20:57.342Z,20.00
2023-03-16T02:26:13.230Z,19.90
2023-03-16T02:31:19.627Z,18.50
2023-03-16T02:36:25.950Z,18.20
2023-03-16T02:41:33.056Z,18.30
2023-03-16T02:46:40.769Z,15.80
2023-03-16T02:51:48.313Z,15.70
2023-03-16T02:56:54.497Z,15.70
2023-03-16T03:02:01.384Z,17.10
2023-03-16T03:07:07.304Z,17.20
2023-03-16T03:12:24.774Z,16.20
2023-03-16T03:17:30.402Z,15.30
2023-03-16T03:22:36.475Z,15.80
2023-03-16T03:27:42.528Z,13.50
2023-03-16T03:32:49.447Z,12.60
2023-03-16T03:37:56.771Z,13.00
2023-03-16T03:43:02.976Z,12.50
2023-03-16T03:48:09.496Z,11.90
2023-03-16T03:53:15.050Z,10.80
2023-03-16T03:58:41.719Z,11.80
2023-03-16T04:03:47.785Z,12.40
2023-03-16T04:08:54.512Z,11.50
2023-03-16T04:14:01.868Z,12.40
2023-03-16T04:19:07.597Z,12.60
2023-03-16T04:24:14.852Z,12.30
2023-03-16T04:29:20.731Z,13.20
2023-03-16T04:34:26.392Z,12.40
2023-03-16T04:39:34.478Z,13.70
2023-03-16T04:44:44.468Z,13.80
2023-03-16T04:49:51.351Z,13.00
2023-03-16T04:54:57.133Z,13.00
2023-03-16T05:00:11.563Z,19.80
2023-03-16T05:05:21.806Z,16.40
2023-03-16T05:10:28.140Z,24.80
2023-03-16T05:15:36.365Z,22.80
2023-03-16T05:20:58.068Z,19.70
2023-03-16T05:26:08.167Z,18.20
2023-03-16T05:31:15.677Z,16.30
2023-03-16T05:36:26.054Z,14.00
2023-03-16T05:41:34.805Z,12.50
2023-03-16T05:47:06.809Z,12.20
2023-03-16T05:52:14.795Z,13.50
2023-03-16T05:57:20.485Z,13.00
2023-03-16T06:02:27.287Z,13.30
2023-03-16T06:07:33.827Z,13.10
2023-03-16T06:12:39.796Z,13.80
2023-03-16T06:17:45.536Z,12.90
2023-03-16T06:22:51.377Z,12.30
2023-03-16T06:27:57.027Z,11.30
2023-03-16T06:33:03.482Z,11.60
2023-03-16T06:38:09.425Z,10.20
2023-03-16T06:43:34.294Z,9.20
2023-03-16T06:48:40.713Z,8.10
2023-03-16T06:53:48.903Z,8.40
2023-03-16T06:58:59.580Z,7.90
2023-03-16T07:04:05.990Z,7.30
2023-03-16T07:09:14.439Z,6.90
2023-03-16T07:14:24.803Z,7.00
2023-03-16T07:19:31.693Z,6.50
2023-03-16T07:24:40.083Z,7.00
2023-03-16T07:29:46.953Z,6.10
2023-03-16T07:34:54.508Z,7.10
2023-03-16T07:40:05.214Z,7.20
2023-03-16T07:45:14.664Z,7.30
2023-03-16T07:50:22.449Z,7.30
2023-03-16T07:55:28.945Z,6.40
2023-03-16T08:00:36.525Z,6.50
2023-03-16T08:05:44.105Z,6.30
2023-03-16T08:10:56.849Z,5.40
2023-03-16T08:16:13.627Z,6.20
2023-03-16T08:21:23.896Z,6.50
2023-03-16T08:26:32.512Z,6.40
2023-03-16T08:31:39.765Z,5.20
2023-03-16T08:37:01.208Z,5.60
2023-03-16T08:42:08.847Z,6.70
2023-03-16T08:47:20.522Z,6.80
2023-03-16T08:52:27.904Z,7.30
2023-03-16T08:57:34.748Z,6.60
2023-03-16T09:02:44.581Z,6.50
2023-03-16T09:07:52.023Z,6.30
2023-03-16T09:13:02.719Z,6.40
2023-03-16T09:18:11.596Z,6.80
2023-03-16T09:23:19.454Z,6.60
2023-03-16T09:28:27.483Z,6.40
2023-03-16T09:33:35.495Z,6.30
2023-03-16T09:38:42.526Z,6.60
2023-03-16T09:44:10.600Z,6.20
2023-03-16T09:49:19.949Z,5.60
2023-03-16T09:54:32.246Z,5.20
2023-03-16T09:59:39.093Z,4.30
2023-03-16T10:04:55.740Z,4.80
2023-03-16T10:10:18.586Z,4.30
2023-03-16T10:15:29.697Z,4.30
2023-03-16T10:20:36.639Z,4.60
2023-03-16T10:25:46.856Z,4.40
2023-03-16T10:30:55.766Z,5.10
2023-03-16T10:36:15.579Z,4.90
2023-03-16T10:41:27.125Z,6.30
2023-03-16T10:46:39.506Z,6.50
2023-03-16T10:51:46.610Z,6.30
2023-03-16T10:56:56.748Z,5.40
2023-03-16T11:02:20.780Z,5.60
2023-03-16T11:07:28.053Z,5.40
2023-03-16T11:12:36.753Z,5.80
2023-03-16T11:17:45.960Z,6.20
2023-03-16T11:22:52.000Z,4.90
2023-03-16T11:28:15.824Z,5.10
2023-03-16T11:33:23.073Z,4.90
2023-03-16T11:38:38.734Z,3.30
2023-03-16T11:43:53.513Z,3.60
2023-03-16T11:49:34.685Z,4.20
2023-03-16T11:54:54.387Z,3.80
2023-03-16T12:00:15.264Z,14.00
2023-03-16T12:10:45.800Z,4.70
2023-03-16T12:15:55.292Z,4.90
2023-03-16T12:21:05.763Z,7.40
2023-03-16T12:26:17.685Z,7.90
2023-03-16T12:31:36.376Z,6.90
2023-03-16T12:42:09.794Z,6.70
2023-03-16T12:47:28.262Z,6.10
2023-03-16T12:52:46.999Z,6.50
2023-03-16T12:58:01.911Z,5.70
2023-03-16T13:03:15.495Z,5.50
2023-03-16T13:08:23.969Z,5.60
2023-03-16T13:13:30.480Z,4.80
2023-03-16T13:18:41.794Z,5.80
2023-03-16T13:23:58.526Z,6.10
2023-03-16T13:29:21.699Z,4.10
2023-03-16T13:34:31.865Z,4.00
2023-03-16T13:39:56.107Z,4.00
2023-03-16T13:45:14.337Z,4.60
2023-03-16T13:50:21.615Z,4.40
2023-03-16T13:55:32.923Z,4.60
2023-03-16T14:00:47.049Z,3.00
2023-03-16T14:05:53.627Z,2.70
2023-03-16T14:11:01.505Z,3.40
2023-03-16T14:16:17.817Z,3.80
2023-03-16T14:21:26.975Z,4.40
2023-03-16T14:26:42.387Z,4.30
2023-03-16T14:31:48.519Z,4.20
2023-03-16T14:37:04.955Z,4.00
2023-03-16T14:42:20.047Z,4.40
2023-03-16T14:47:28.115Z,4.00
2023-03-16T14:52:34.778Z,3.80
2023-03-16T14:57:41.770Z,3.80
2023-03-16T15:02:57.768Z,3.80
2023-03-16T15:08:05.514Z,3.80
2023-03-16T15:13:34.523Z,4.50
2023-03-16T15:18:40.480Z,4.40
2023-03-16T15:23:46.867Z,3.80
2023-03-16T15:28:52.682Z,3.70
2023-03-16T15:33:58.238Z,3.50
2023-03-16T15:39:05.490Z,3.90
2023-03-16T15:44:14.391Z,4.20
2023-03-16T15:49:19.906Z,4.20
2023-03-16T15:54:26.178Z,5.20
2023-03-16T15:59:36.577Z,4.30
2023-03-16T16:04:43.568Z,4.50
2023-03-16T16:09:49.797Z,5.00
2023-03-16T16:14:56.954Z,7.00
2023-03-16T16:20:11.773Z,5.60
2023-03-16T16:25:18.638Z,5.00
2023-03-16T16:30:27.637Z,5.20
2023-03-16T16:35:36.581Z,5.20
2023-03-16T16:40:45.987Z,5.30
2023-03-16T16:45:51.778Z,5.40
2023-03-16T16:50:57.309Z,6.90
2023-03-16T16:56:03.140Z,8.20
2023-03-16T17:01:14.227Z,8.80
2023-03-16T17:11:29.092Z,16.60
2023-03-16T17:16:37.449Z,13.30
2023-03-16T17:21:44.038Z,9.20
2023-03-16T17:26:55.032Z,8.60
2023-03-16T17:37:12.652Z,7.80
2023-03-16T17:42:20.091Z,8.00
2023-03-16T17:47:28.617Z,10.90
2023-03-16T17:52:38.287Z,12.70
2023-03-16T17:57:43.647Z,12.40
2023-03-16T18:02:56.241Z,11.90
2023-03-16T18:08:13.073Z,13.20
2023-03-16T18:13:22.544Z,14.00
2023-03-16T18:18:30.112Z,16.50
2023-03-16T18:23:36.870Z,17.90
2023-03-16T18:28:43.884Z,16.60
2023-03-16T18:33:52.763Z,17.40
2023-03-16T18:39:01.656Z,17.70
2023-03-16T18:44:17.260Z,15.60
2023-03-16T18:49:27.263Z,14.50
2023-03-16T18:54:36.792Z,13.30
2023-03-16T18:59:42.835Z,13.50
2023-03-16T19:04:48.479Z,14.30
2023-03-16T19:09:54.045Z,15.50
2023-03-16T19:14:59.515Z,18.30
2023-03-16T19:20:05.277Z,19.80
2023-03-16T19:25:18.417Z,20.60
2023-03-16T19:30:26.888Z,22.60
2023-03-16T19:35:50.343Z,24.70
2023-03-16T19:40:58.429Z,23.10
2023-03-16T19:46:04.018Z,24.60
2023-03-16T19:51:13.451Z,25.50
2023-03-16T19:56:21.545Z,27.70
2023-03-16T20:01:32.732Z,30.70
2023-03-16T20:06:38.574Z,35.50
2023-03-16T20:11:45.067Z,45.00
2023-03-16T20:16:51.103Z,54.30
2023-03-16T20:21:56.781Z,70.20
2023-03-16T20:27:02.886Z,78.30
2023-03-16T20:32:17.057Z,76.40
2023-03-16T20:37:25.354Z,75.90
2023-03-16T20:42:32.769Z,80.60
2023-03-16T20:47:38.129Z,75.00
2023-03-16T20:52:44.505Z,75.10
2023-03-16T20:57:52.020Z,79.50
2023-03-16T21:02:58.627Z,77.20
2023-03-16T21:08:04.112Z,79.80
2023-03-16T21:13:19.312Z,90.20
2023-03-16T21:18:24.926Z,94.60
2023-03-16T21:23:30.796Z,127.60
2023-03-16T21:28:36.709Z,101.60
2023-03-16T21:33:43.327Z,107.90
2023-03-16T21:38:51.694Z,110.40
2023-03-16T21:43:57.529Z,107.40
2023-03-16T21:49:04.580Z,113.30
2023-03-16T21:54:14.953Z,118.10
2023-03-16T21:59:22.096Z,117.60
2023-03-16T22:04:28.559Z,118.90
2023-03-16T22:09:34.064Z,108.10
2023-03-16T22:14:39.573Z,114.60
2023-03-16T22:19:45.007Z,116.50
2023-03-16T22:24:50.415Z,118.50
2023-03-16T22:29:55.888Z,122.50
2023-03-16T22:35:01.372Z,119.40
2023-03-16T22:40:16.328Z,132.10
2023-03-16T22:45:25.614Z,129.40
2023-03-16T22:50:34.093Z,128.60
2023-03-16T22:55:40.880Z,121.80
2023-03-16T23:00:46.312Z,123.10
2023-03-16T23:05:52.345Z,103.10
2023-03-16T23:10:58.503Z,94.30
2023-03-16T23:16:04.432Z,78.40
2023-03-16T23:21:15.451Z,86.50
2023-03-16T23:26:24.528Z,91.30
2023-03-16T23:31:31.555Z,90.20
2023-03-16T23:36:37.190Z,91.80
2023-03-16T23:41:45.655Z,77.90
2023-03-16T23:46:51.505Z,76.20
2023-03-16T23:51:58.452Z,70.40
2023-03-16T23:57:03.933Z,63.90
